createdAt,value
2022-09-07T00:00:49.788Z,101045.16
2022-09-07T00:03:17.473Z,101049.06
2022-09-07T00:05:46.140Z,101043.91
2022-09-07T00:08:13.816Z,101031.34
2022-09-07T00:10:41.457Z,101040.09
2022-09-07T00:13:09.446Z,101037.44
2022-09-07T00:15:40.412Z,101043.13
2022-09-07T00:18:07.771Z,101047.13
2022-09-07T00:20:34.955Z,101037.50
2022-09-07T00:23:02.174Z,101031.34
2022-09-07T00:25:31.915Z,101032.94
2022-09-07T00:27:59.568Z,101027.97
2022-09-07T00:30:27.054Z,101019.38
2022-09-07T00:32:54.279Z,101026.06
2022-09-07T00:35:21.558Z,101033.41
2022-09-07T00:37:48.750Z,101032.63
2022-09-07T00:40:15.979Z,101039.66
2022-09-07T00:42:43.227Z,101037.94
2022-09-07T00:45:20.938Z,101038.91
2022-09-07T00:47:53.395Z,101033.84
2022-09-07T00:50:33.444Z,101030.97
2022-09-07T00:53:14.796Z,101024.97
2022-09-07T00:55:44.447Z,101025.31
2022-09-07T00:58:11.910Z,101020.00
2022-09-07T01:00:41.339Z,101017.78
2022-09-07T01:03:09.254Z,101013.25
2022-09-07T01:05:44.080Z,101016.09
2022-09-07T01:08:12.671Z,101024.19
2022-09-07T01:10:40.144Z,101015.59
2022-09-07T01:13:07.702Z,100998.78
2022-09-07T01:15:56.629Z,100998.44
2022-09-07T01:18:38.200Z,100998.47
2022-09-07T01:21:27.318Z,101006.59
2022-09-07T01:24:13.102Z,101007.44
2022-09-07T01:26:54.085Z,101010.09
2022-09-07T01:29:40.456Z,101003.59
2022-09-07T01:32:23.811Z,101004.19
2022-09-07T01:34:54.036Z,101004.13
2022-09-07T01:37:30.786Z,101014.56
2022-09-07T01:40:06.798Z,101014.91
2022-09-07T01:42:41.068Z,101019.63
2022-09-07T01:45:12.697Z,101022.28
2022-09-07T01:47:45.327Z,101025.56
2022-09-07T01:50:28.797Z,101020.56
2022-09-07T01:53:00.902Z,101018.69
2022-09-07T01:55:51.758Z,101012.34
2022-09-07T01:58:26.594Z,101010.72
2022-09-07T02:01:19.143Z,101010.13
2022-09-07T02:03:54.085Z,101013.38
2022-09-07T02:06:32.631Z,101004.72
2022-09-07T02:09:05.759Z,100987.38
2022-09-07T02:11:39.246Z,100990.38
2022-09-07T02:14:18.239Z,100998.97
2022-09-07T02:17:17.088Z,101002.97
2022-09-07T02:19:59.952Z,100997.19
2022-09-07T02:22:29.762Z,100994.72
2022-09-07T02:24:59.947Z,100992.06
2022-09-07T02:27:33.992Z,100989.63
2022-09-07T02:30:01.199Z,100995.66
2022-09-07T02:32:28.568Z,100998.31
2022-09-07T02:34:55.793Z,100993.06
2022-09-07T02:37:23.609Z,100990.75
2022-09-07T02:39:50.856Z,100995.03
2022-09-07T02:42:18.122Z,100996.06
2022-09-07T02:44:46.587Z,100991.34
2022-09-07T02:47:34.940Z,100992.59
2022-09-07T02:50:27.772Z,100986.81
2022-09-07T02:53:23.205Z,100988.69
2022-09-07T02:55:58.967Z,100993.78
2022-09-07T02:58:34.303Z,100993.84
2022-09-07T03:01:24.297Z,100987.84
2022-09-07T03:04:09.906Z,100986.47
2022-09-07T03:06:50.835Z,100992.72
2022-09-07T03:09:21.292Z,100983.00
2022-09-07T03:11:48.931Z,100985.22
2022-09-07T03:14:21.464Z,100972.28
2022-09-07T03:16:53.839Z,100973.28
2022-09-07T03:19:21.128Z,100971.25
2022-09-07T03:21:48.671Z,100973.16
2022-09-07T03:24:15.884Z,100974.16
2022-09-07T03:26:48.542Z,100967.59
2022-09-07T03:29:16.330Z,100960.34
2022-09-07T03:31:43.515Z,100966.66
2022-09-07T03:34:11.254Z,100957.84
2022-09-07T03:36:38.555Z,100960.44
2022-09-07T03:39:07.327Z,100964.25
2022-09-07T03:41:34.925Z,100966.81
2022-09-07T03:44:06.212Z,100967.53
2022-09-07T03:46:34.271Z,100964.41
2022-09-07T03:49:01.565Z,100959.19
2022-09-07T03:51:28.817Z,100956.47
2022-09-07T03:53:56.093Z,100947.63
2022-09-07T03:56:24.689Z,100948.81
2022-09-07T03:58:53.877Z,100949.31
2022-09-07T04:01:23.587Z,100945.59
2022-09-07T04:03:51.444Z,100951.03
2022-09-07T04:06:19.846Z,100943.84
2022-09-07T04:08:47.161Z,100942.81
2022-09-07T04:11:18.516Z,100942.72
2022-09-07T04:13:46.243Z,100937.84
2022-09-07T04:16:24.145Z,100941.75
2022-09-07T04:18:51.777Z,100946.81
2022-09-07T04:21:19.537Z,100951.97
2022-09-07T04:23:47.047Z,100958.75
2022-09-07T04:26:19.381Z,100948.97
2022-09-07T04:28:46.958Z,100948.31
2022-09-07T04:31:15.884Z,100954.31
2022-09-07T04:33:44.421Z,100946.91
2022-09-07T04:36:12.390Z,100943.25
2022-09-07T04:38:40.068Z,100937.69
2022-09-07T04:41:16.413Z,100931.69
2022-09-07T04:43:46.447Z,100928.25
2022-09-07T04:46:22.021Z,100926.06
2022-09-07T04:48:50.800Z,100920.94
2022-09-07T04:51:18.485Z,100916.41
2022-09-07T04:53:48.815Z,100924.44
2022-09-07T04:56:17.186Z,100925.38
2022-09-07T04:58:45.036Z,100916.19
2022-09-07T05:01:15.038Z,100914.50
2022-09-07T05:03:42.778Z,100915.41
2022-09-07T05:06:10.563Z,100917.16
2022-09-07T05:08:39.271Z,100912.81
2022-09-07T05:11:06.640Z,100912.97
2022-09-07T05:13:34.015Z,100907.69
2022-09-07T05:16:07.158Z,100921.56
2022-09-07T05:18:34.408Z,100913.78
2022-09-07T05:21:08.780Z,100917.66
2022-09-07T05:23:36.145Z,100907.91
2022-09-07T05:26:05.780Z,100906.72
2022-09-07T05:28:34.284Z,100908.38
2022-09-07T05:31:17.595Z,100910.22
2022-09-07T05:36:41.309Z,100918.41
2022-09-07T05:39:09.122Z,100911.94
2022-09-07T05:41:36.657Z,100915.59
2022-09-07T05:46:54.778Z,100917.53
2022-09-07T05:49:22.102Z,100920.78
2022-09-07T05:51:49.558Z,100922.25
2022-09-07T05:54:16.753Z,100918.31
2022-09-07T05:56:43.973Z,100925.78
2022-09-07T05:59:11.187Z,100927.31
2022-09-07T06:01:38.450Z,100924.94
2022-09-07T06:04:05.735Z,100923.94
2022-09-07T06:06:36.304Z,100911.69
2022-09-07T06:09:03.581Z,100917.06
2022-09-07T06:11:30.813Z,100910.50
2022-09-07T06:13:58.065Z,100917.13
2022-09-07T06:16:25.471Z,100916.19
2022-09-07T06:18:52.732Z,100913.56
2022-09-07T06:21:22.052Z,100917.75
2022-09-07T06:23:50.048Z,100915.25
2022-09-07T06:26:18.657Z,100907.66
2022-09-07T06:28:49.620Z,100905.00
2022-09-07T06:31:19.732Z,100909.94
2022-09-07T06:33:50.081Z,100906.41
2022-09-07T06:36:22.124Z,100905.00
2022-09-07T06:38:50.226Z,100904.88
2022-09-07T06:44:07.006Z,100898.84
2022-09-07T06:49:21.707Z,100902.56
2022-09-07T06:51:48.896Z,100908.78
2022-09-07T06:57:08.768Z,100895.09
2022-09-07T06:59:36.824Z,100890.78
2022-09-07T07:02:04.981Z,100883.47
2022-09-07T07:04:35.113Z,100890.81
2022-09-07T07:07:05.244Z,100896.91
2022-09-07T07:09:32.672Z,100895.50
2022-09-07T07:12:00.147Z,100903.97
2022-09-07T07:14:29.022Z,100894.72
2022-09-07T07:16:58.419Z,100895.91
2022-09-07T07:19:25.649Z,100901.06
2022-09-07T07:22:23.790Z,100897.97
2022-09-07T07:24:40.121Z,100889.72
2022-09-07T07:27:07.396Z,100885.03
2022-09-07T07:29:34.623Z,100880.72
2022-09-07T07:32:01.987Z,100871.38
2022-09-07T07:34:29.425Z,100890.97
2022-09-07T07:36:56.638Z,100890.34
2022-09-07T07:42:12.374Z,100881.66
2022-09-07T07:44:39.739Z,100889.66
2022-09-07T07:47:07.035Z,100890.25
2022-09-07T07:49:34.252Z,100886.13
2022-09-07T07:54:49.685Z,100902.03
2022-09-07T07:57:18.953Z,100903.81
2022-09-07T07:59:47.245Z,100909.13
2022-09-07T08:02:17.646Z,100896.78
2022-09-07T08:04:44.895Z,100889.06
2022-09-07T08:07:12.503Z,100888.56
2022-09-07T08:09:41.038Z,100891.06
2022-09-07T08:12:09.746Z,100896.09
2022-09-07T08:14:41.005Z,100892.53
2022-09-07T08:17:09.449Z,100889.50
2022-09-07T08:19:36.633Z,100880.03
2022-09-07T08:22:03.986Z,100884.66
2022-09-07T08:24:32.003Z,100872.06
2022-09-07T08:26:59.467Z,100873.06
2022-09-07T08:29:27.204Z,100879.94
2022-09-07T08:31:54.986Z,100884.09
2022-09-07T08:34:22.501Z,100863.56
2022-09-07T08:36:49.768Z,100878.34
2022-09-07T08:39:17.066Z,100881.88
2022-09-07T08:42:13.935Z,100876.31
2022-09-07T08:44:43.752Z,100869.16
2022-09-07T08:47:29.776Z,100875.22
2022-09-07T08:50:04.950Z,100871.78
2022-09-07T08:52:51.378Z,100869.81
2022-09-07T08:55:26.791Z,100877.44
2022-09-07T08:58:02.021Z,100875.91
2022-09-07T09:00:31.389Z,100887.38
2022-09-07T09:06:01.189Z,100869.13
2022-09-07T09:08:36.147Z,100870.91
2022-09-07T09:11:19.679Z,100880.84
2022-09-07T09:14:20.724Z,100867.97
2022-09-07T09:16:55.042Z,100859.97
2022-09-07T09:19:45.014Z,100857.31
2022-09-07T09:22:21.808Z,100867.50
2022-09-07T09:24:54.447Z,100858.81
2022-09-07T09:27:21.661Z,100858.75
2022-09-07T09:29:48.830Z,100857.50
2022-09-07T09:32:39.883Z,100864.59
2022-09-07T09:35:19.839Z,100855.66
2022-09-07T09:37:47.088Z,100859.75
2022-09-07T09:40:26.485Z,100868.25
2022-09-07T09:43:04.147Z,100858.09
2022-09-07T09:48:30.119Z,100847.09
2022-09-07T09:53:55.911Z,100844.88
2022-09-07T09:56:24.783Z,100843.25
2022-09-07T09:59:56.924Z,100836.59
2022-09-07T10:04:35.109Z,100829.94
2022-09-07T10:07:19.360Z,100834.97
2022-09-07T10:09:51.587Z,100846.88
2022-09-07T10:12:29.297Z,100846.25
2022-09-07T10:14:57.240Z,100840.16
2022-09-07T10:17:32.823Z,100848.34
2022-09-07T10:20:02.066Z,100830.72
2022-09-07T10:22:34.077Z,100834.84
2022-09-07T10:25:05.057Z,100833.38
2022-09-07T10:27:38.236Z,100827.34
2022-09-07T10:30:13.723Z,100818.56
2022-09-07T10:33:09.134Z,100821.03
2022-09-07T10:36:00.248Z,100814.78
2022-09-07T10:38:28.921Z,100812.38
2022-09-07T10:41:10.140Z,100809.06
2022-09-07T10:43:45.814Z,100797.56
2022-09-07T10:49:27.430Z,100817.28
2022-09-07T10:52:05.041Z,100820.06
2022-09-07T10:54:40.853Z,100817.25
2022-09-07T10:57:40.536Z,100815.84
2022-09-07T11:00:21.745Z,100817.47
2022-09-07T11:03:29.287Z,100810.69
2022-09-07T11:06:06.144Z,100808.22
2022-09-07T11:12:07.642Z,100809.16
2022-09-07T11:14:43.223Z,100804.72
2022-09-07T11:17:17.377Z,100805.63
2022-09-07T11:20:31.985Z,100813.72
2022-09-07T11:23:17.302Z,100814.81
2022-09-07T11:26:13.130Z,100819.75
2022-09-07T11:29:36.718Z,100821.66
2022-09-07T11:32:17.620Z,100824.16
2022-09-07T11:34:52.082Z,100816.19
2022-09-07T11:37:20.666Z,100823.50
2022-09-07T11:40:07.511Z,100818.28
2022-09-07T11:42:49.998Z,100824.38
2022-09-07T11:45:45.425Z,100816.09
2022-09-07T11:48:19.535Z,100815.38
2022-09-07T11:50:54.244Z,100810.06
2022-09-07T11:53:26.906Z,100806.22
2022-09-07T11:56:07.071Z,100809.16
2022-09-07T11:59:05.371Z,100796.56
2022-09-07T12:02:36.666Z,100803.34
2022-09-07T12:05:24.265Z,100797.06
2022-09-07T12:08:14.735Z,100796.44
2022-09-07T12:11:09.057Z,100794.38
2022-09-07T12:13:57.465Z,100790.56
2022-09-07T12:16:59.456Z,100790.34
2022-09-07T12:19:27.725Z,100780.41
2022-09-07T12:21:57.631Z,100778.06
2022-09-07T12:24:51.668Z,100780.25
2022-09-07T12:27:22.182Z,100775.97
2022-09-07T12:29:52.544Z,100770.03
2022-09-07T12:32:56.195Z,100763.13
2022-09-07T12:35:27.516Z,100770.91
2022-09-07T12:37:58.586Z,100767.06
2022-09-07T12:40:29.039Z,100763.34
2022-09-07T12:43:14.531Z,100763.25
2022-09-07T12:45:45.135Z,100756.38
2022-09-07T12:48:18.221Z,100760.59
2022-09-07T12:51:07.788Z,100762.53
2022-09-07T12:53:57.989Z,100752.28
2022-09-07T13:00:10.000Z,100755.53
2022-09-07T13:02:46.219Z,100756.69
2022-09-07T13:05:37.644Z,100741.31
2022-09-07T13:08:20.955Z,100736.84
2022-09-07T13:10:49.237Z,100738.22
2022-09-07T13:14:02.603Z,100739.44
2022-09-07T13:16:12.047Z,100747.53
2022-09-07T13:18:41.444Z,100755.00
2022-09-07T13:21:08.564Z,100748.78
2022-09-07T13:23:37.835Z,100746.44
2022-09-07T13:26:08.767Z,100743.84
2022-09-07T13:28:58.031Z,100744.69
2022-09-07T13:31:42.904Z,100747.59
2022-09-07T13:34:29.724Z,100740.88
2022-09-07T13:36:57.045Z,100734.44
2022-09-07T13:39:24.461Z,100731.28
2022-09-07T13:41:57.839Z,100722.88
2022-09-07T13:44:27.498Z,100723.44
2022-09-07T13:47:09.309Z,100725.81
2022-09-07T13:49:39.368Z,100728.78
2022-09-07T13:52:35.722Z,100723.84
2022-09-07T13:55:25.626Z,100723.47
2022-09-07T13:58:17.851Z,100712.72
2022-09-07T14:00:56.755Z,100706.13
2022-09-07T14:03:26.062Z,100716.16
2022-09-07T14:06:21.321Z,100716.53
2022-09-07T14:08:50.231Z,100722.28
2022-09-07T14:11:40.148Z,100718.84
2022-09-07T14:14:08.119Z,100706.34
2022-09-07T14:16:36.026Z,100704.09
2022-09-07T14:19:10.950Z,100702.94
2022-09-07T14:21:38.452Z,100702.66
2022-09-07T14:24:15.893Z,100707.75
2022-09-07T14:26:48.296Z,100701.25
2022-09-07T14:29:29.993Z,100696.19
2022-09-07T14:31:58.520Z,100698.47
2022-09-07T14:34:29.749Z,100698.22
2022-09-07T14:37:01.483Z,100688.88
2022-09-07T14:39:29.953Z,100685.28
2022-09-07T14:41:58.912Z,100681.97
2022-09-07T14:44:42.883Z,100681.22
2022-09-07T14:47:21.451Z,100674.47
2022-09-07T14:49:52.684Z,100671.75
2022-09-07T14:52:31.695Z,100672.16
2022-09-07T14:54:59.309Z,100677.69
2022-09-07T14:57:32.304Z,100675.53
2022-09-07T15:00:31.301Z,100680.09
2022-09-07T15:02:59.314Z,100687.53
2022-09-07T15:05:28.316Z,100681.91
2022-09-07T15:08:03.790Z,100685.13
2022-09-07T15:10:41.257Z,100678.50
2022-09-07T15:13:24.176Z,100676.91
2022-09-07T15:15:59.514Z,100685.16
2022-09-07T15:18:51.742Z,100680.28
2022-09-07T15:21:19.467Z,100683.16
2022-09-07T15:23:53.222Z,100683.69
2022-09-07T15:29:10.893Z,100682.44
2022-09-07T15:31:42.557Z,100686.69
2022-09-07T15:34:13.724Z,100683.75
2022-09-07T15:36:43.179Z,100685.69
2022-09-07T15:39:25.409Z,100677.84
2022-09-07T15:41:53.043Z,100679.75
2022-09-07T15:44:24.929Z,100672.97
2022-09-07T15:49:45.782Z,100674.34
2022-09-07T15:52:18.430Z,100670.41
2022-09-07T15:54:48.596Z,100663.63
2022-09-07T16:00:03.860Z,100653.28
2022-09-07T16:05:18.581Z,100645.59
2022-09-07T16:10:32.970Z,100641.66
2022-09-07T16:13:02.023Z,100641.34
2022-09-07T16:15:31.086Z,100635.59
2022-09-07T16:17:58.568Z,100627.81
2022-09-07T16:20:25.911Z,100634.97
2022-09-07T16:25:41.711Z,100624.88
2022-09-07T16:28:09.516Z,100619.72
2022-09-07T16:30:40.394Z,100620.31
2022-09-07T16:33:07.782Z,100619.63
2022-09-07T16:35:35.075Z,100610.75
2022-09-07T16:40:51.007Z,100600.56
2022-09-07T16:43:18.245Z,100614.31
2022-09-07T16:48:37.355Z,100610.75
2022-09-07T16:51:05.437Z,100612.69
2022-09-07T16:53:35.375Z,100615.69
2022-09-07T16:56:04.565Z,100615.44
2022-09-07T16:58:37.420Z,100612.81
2022-09-07T17:01:06.805Z,100609.59
2022-09-07T17:03:34.639Z,100610.28
2022-09-07T17:06:02.424Z,100605.81
2022-09-07T17:08:29.970Z,100604.97
2022-09-07T17:11:04.517Z,100606.69
2022-09-07T17:13:33.195Z,100607.97
2022-09-07T17:16:09.556Z,100621.28
2022-09-07T17:21:24.572Z,100628.16
2022-09-07T17:23:55.654Z,100619.25
2022-09-07T17:26:26.441Z,100612.78
2022-09-07T17:28:56.576Z,100606.72
2022-09-07T17:34:16.673Z,100596.72
2022-09-07T17:36:44.921Z,100589.94
2022-09-07T17:39:17.125Z,100586.28
2022-09-07T17:41:46.735Z,100600.31
2022-09-07T17:44:13.940Z,100606.88
2022-09-07T17:46:41.137Z,100610.41
2022-09-07T17:49:12.229Z,100608.59
2022-09-07T17:51:39.633Z,100601.69
2022-09-07T17:54:11.621Z,100608.06
2022-09-07T17:56:39.599Z,100617.69
2022-09-07T18:01:54.275Z,100639.78
2022-09-07T18:04:21.807Z,100644.44
2022-09-07T18:06:49.171Z,100646.09
2022-09-07T18:09:16.870Z,100646.78
2022-09-07T18:11:45.807Z,100647.94
2022-09-07T18:14:14.835Z,100658.09
2022-09-07T18:16:42.782Z,100662.19
2022-09-07T18:19:11.755Z,100663.63
2022-09-07T18:21:41.006Z,100663.13
2022-09-07T18:24:20.541Z,100665.13
2022-09-07T18:26:51.200Z,100651.81
2022-09-07T18:29:32.306Z,100666.25
2022-09-07T18:32:01.291Z,100666.94
2022-09-07T18:34:29.272Z,100677.44
2022-09-07T18:36:58.111Z,100665.97
2022-09-07T18:39:26.349Z,100672.03
2022-09-07T18:41:54.557Z,100671.03
2022-09-07T18:47:15.448Z,100657.03
2022-09-07T18:49:48.222Z,100666.03
2022-09-07T18:55:02.866Z,100655.28
2022-09-07T18:57:30.025Z,100654.31
2022-09-07T18:59:57.215Z,100650.72
2022-09-07T19:02:24.483Z,100659.63
2022-09-07T19:07:39.119Z,100658.25
2022-09-07T19:10:08.018Z,100673.50
2022-09-07T19:12:35.221Z,100674.50
2022-09-07T19:15:03.856Z,100669.78
2022-09-07T19:17:32.388Z,100663.97
2022-09-07T19:20:00.650Z,100667.75
2022-09-07T19:22:28.120Z,100661.28
2022-09-07T19:24:55.341Z,100662.28
2022-09-07T19:27:22.517Z,100658.03
2022-09-07T19:29:49.709Z,100662.66
2022-09-07T19:32:17.282Z,100662.66
2022-09-07T19:34:45.938Z,100662.66
2022-09-07T19:37:13.542Z,100662.66
2022-09-07T19:39:40.764Z,100668.28
2022-09-07T19:42:08.380Z,100667.13
2022-09-07T19:44:35.808Z,100662.25
2022-09-07T19:47:03.297Z,100665.34
2022-09-07T19:49:31.092Z,100658.88
2022-09-07T19:51:59.297Z,100661.25
2022-09-07T19:54:28.550Z,100660.13
2022-09-07T19:56:55.793Z,100656.56
2022-09-07T19:59:24.382Z,100653.06
2022-09-07T20:01:53.698Z,100646.16
2022-09-07T20:04:23.533Z,100640.16
2022-09-07T20:06:51.765Z,100640.56
2022-09-07T20:09:20.228Z,100645.31
2022-09-07T20:11:47.986Z,100635.59
2022-09-07T20:14:16.528Z,100636.44
2022-09-07T20:16:44.476Z,100620.03
2022-09-07T20:19:14.647Z,100612.59
2022-09-07T20:21:43.806Z,100604.13
2022-09-07T20:24:22.123Z,100603.06
2022-09-07T20:26:49.420Z,100600.47
2022-09-07T20:29:27.410Z,100598.78
2022-09-07T20:31:56.442Z,100598.84
2022-09-07T20:34:23.743Z,100599.19
2022-09-07T20:36:52.661Z,100594.34
2022-09-07T20:39:20.534Z,100593.59
2022-09-07T20:41:47.932Z,100596.28
2022-09-07T20:44:15.433Z,100596.78
2022-09-07T20:46:42.815Z,100598.94
2022-09-07T20:49:10.059Z,100600.53
2022-09-07T20:51:37.276Z,100596.50
2022-09-07T20:54:04.703Z,100597.34
2022-09-07T20:56:31.908Z,100587.47
2022-09-07T20:59:01.565Z,100594.59
2022-09-07T21:01:29.969Z,100593.84
2022-09-07T21:03:58.244Z,100589.84
2022-09-07T21:06:26.629Z,100602.53
2022-09-07T21:08:59.651Z,100596.06
2022-09-07T21:11:29.138Z,100597.03
2022-09-07T21:13:58.356Z,100602.13
2022-09-07T21:16:25.953Z,100606.53
2022-09-07T21:18:55.410Z,100594.00
2022-09-07T21:21:23.732Z,100598.84
2022-09-07T21:23:55.953Z,100595.72
2022-09-07T21:26:23.799Z,100596.19
2022-09-07T21:29:02.446Z,100589.50
2022-09-07T21:31:33.737Z,100590.38
2022-09-07T21:34:02.169Z,100579.44
2022-09-07T21:36:29.908Z,100581.28
2022-09-07T21:38:57.205Z,100577.75
2022-09-07T21:41:25.066Z,100586.16
2022-09-07T21:44:00.312Z,100589.28
2022-09-07T21:46:29.107Z,100592.09
2022-09-07T21:48:57.349Z,100591.00
2022-09-07T21:51:25.983Z,100591.63
2022-09-07T21:53:57.211Z,100585.66
2022-09-07T21:56:24.954Z,100586.00
2022-09-07T21:58:56.577Z,100582.59
2022-09-07T22:01:24.890Z,100575.44
2022-09-07T22:04:06.845Z,100584.66
2022-09-07T22:06:34.461Z,100582.25
2022-09-07T22:09:02.439Z,100594.06
2022-09-07T22:11:33.880Z,100585.78
2022-09-07T22:14:03.171Z,100590.78
2022-09-07T22:16:31.601Z,100600.22
2022-09-07T22:18:58.934Z,100591.97
2022-09-07T22:21:28.226Z,100586.75
2022-09-07T22:23:57.452Z,100593.78
2022-09-07T22:26:27.007Z,100589.44
2022-09-07T22:28:54.372Z,100593.44
2022-09-07T22:31:24.353Z,100595.13
2022-09-07T22:33:52.905Z,100584.53
2022-09-07T22:36:29.659Z,100587.09
2022-09-07T22:38:59.490Z,100582.00
2022-09-07T22:41:29.540Z,100584.38
2022-09-07T22:43:56.877Z,100576.84
2022-09-07T22:46:26.299Z,100583.91
2022-09-07T22:48:58.224Z,100577.81
2022-09-07T22:51:26.753Z,100579.78
2022-09-07T22:53:54.899Z,100570.53
2022-09-07T22:56:26.115Z,100574.41
2022-09-07T22:58:55.840Z,100576.34
2022-09-07T23:01:23.523Z,100569.06
2022-09-07T23:03:51.530Z,100561.53
2022-09-07T23:06:33.174Z,100557.50
2022-09-07T23:09:06.734Z,100558.59
2022-09-07T23:11:34.093Z,100552.03
2022-09-07T23:14:05.435Z,100546.91
2022-09-07T23:16:32.687Z,100543.03
2022-09-07T23:19:00.454Z,100540.81
2022-09-07T23:21:28.191Z,100541.63
2022-09-07T23:23:58.731Z,100539.94
2022-09-07T23:26:28.106Z,100529.97
2022-09-07T23:29:03.386Z,100540.16
2022-09-07T23:31:33.198Z,100541.22
2022-09-07T23:34:01.703Z,100532.72
2022-09-07T23:36:30.100Z,100531.28
2022-09-07T23:38:58.616Z,100517.31
2022-09-07T23:41:26.509Z,100524.31
2022-09-07T23:43:53.981Z,100517.06
2022-09-07T23:46:21.285Z,100518.53
2022-09-07T23:48:49.018Z,100524.72
2022-09-07T23:51:21.323Z,100523.47
2022-09-07T23:53:51.060Z,100524.72
2022-09-07T23:56:18.282Z,100532.00
2022-09-07T23:58:45.533Z,100532.63
